Allison, North Carolina
Current Conditions -  °F | °C
As of 12:24 AM on Tuesday 27 Jan 2015 (Local Time) from KDAN Reporting Station
Light Snow Light Snow  
Wind Chill: 27°   Ceiling: 4900
Heat Index: 35°   Visibility: 6mi
Dew Point: 27°   Wind: 12mph
Humidity: 72%   Direction: 340°NNW
Pressure: 29.73"   Gusts: NA
Location:  36.4355°N, 79.5464°W
Report Text: KDAN 270524Z AUTO 34010KT 6SM -SN SCT014 OVC049 02/M03 A2973 RMK AO2 P0000 T00171028
Loading
Personal Weather Stations






























Interactive Weather Map New forecast layout! Learn more

10-Day Weather Forecast

Advertisements
Track Severe Weather on mobile